Terminal Aerodrome Forecast
Issued by NWS Sioux Falls, SD

Home | Current Version | Previous Version | Graphics & Text | Print | Product List | Glossary On
Versions: 1 2 3 4 5 6 7 8 9 10 11 12 13 14 15 16 17 18 19
000
FTUS43 KFSD 250408 AAB
TAFFSD
TAF AMD
KFSD 250408Z 2504/2524 14014KT P6SM SCT035 BKN120
     FM250500 07010KT 6SM BR OVC018
     FM251600 06013KT P6SM OVC022
     FM252000 07013KT P6SM BKN035=

USA.gov is the U.S. government's official web portal to all federal, state and local government web resources and services.